Time;durP1;ratioP1;P1;durP2;ratioP2;P2;SDS_P1;SDS_P2;PMS_P1;PMS_P2;Temp;Humidity;BMP_temperature;BMP_pressure;BME280_temperature;BME280_humidity;BME280_pressure;Samples;Min_cycle;Max_cycle;Signal;HPM_P1;HPM_P2
2021/07/11 00:00:07;;;;;;;;;;;;;;;21.91;54.29;95698.16;1044730;28;1236;-77
2021/07/11 00:00:37;;;;;;;;;;;;;;;21.91;54.12;95700.78;1045159;28;1072;-77
2021/07/11 00:01:07;;;;;;;;;;;;;;;21.91;53.99;95695.50;1042987;28;959;-78
2021/07/11 00:01:38;;;;;;;;;;;;;;;21.91;54.29;95700.78;1039631;28;2730;-76
2021/07/11 00:02:08;;;;;;;;;;;;;;;21.91;54.29;95705.31;1044832;28;1391;-76
2021/07/11 00:02:38;;;;;;;;;;;;;;;21.91;53.93;95700.78;1045171;28;1127;-76
2021/07/11 00:03:08;;;;;;;;;;;;;;;21.91;54.27;95700.78;1040650;28;1166;-76
2021/07/11 00:03:39;;;;;;;;;;;;;;;21.90;54.20;95699.25;1040816;28;1162;-76
2021/07/11 00:04:09;;;;;;;;;;;;;;;21.91;54.18;95697.38;1042673;28;2668;-76
2021/07/11 00:04:39;;;;;;;;;;;;;;;21.89;54.42;95702.94;1041349;28;2490;-76
2021/07/11 00:05:10;;;;;;;;;;;;;;;21.90;54.47;95704.50;1049047;28;1092;-76
2021/07/11 00:05:40;;;;;;;;;;;;;;;21.90;54.27;95707.16;1049471;28;1110;-77
2021/07/11 00:06:10;;;;;;;;;;;;;;;21.90;54.47;95709.78;1049135;28;1151;-77
2021/07/11 00:06:41;;;;;;;;;;;;;;;21.90;54.18;95709.78;1045092;28;1095;-77
2021/07/11 00:07:14;;;;;;;;;;;;;;;21.90;54.32;95714.28;1040393;28;1232;-76
2021/07/11 00:07:44;;;;;;;;;;;;;;;21.89;54.31;95710.84;1040975;28;1135;-76
2021/07/11 00:08:15;;;;;;;;;;;;;;;21.90;54.25;95716.91;1040342;28;950;-76
2021/07/11 00:08:45;;;;;;;;;;;;;;;21.90;54.25;95720.34;1038728;28;1159;-77
2021/07/11 00:09:15;;;;;;;;;;;;;;;21.89;54.23;95716.13;1040124;28;2641;-76
2021/07/11 00:09:45;;;;;;;;;;;;;;;21.90;54.33;95716.91;1036293;28;2242;-76
2021/07/11 00:10:19;;;;;;;;;;;;;;;21.90;54.24;95719.56;1038632;28;1167;-76
2021/07/11 00:10:49;;;;;;;;;;;;;;;21.90;53.96;95723.00;1039649;28;1880;-76
2021/07/11 00:11:19;;;;;;;;;;;;;;;21.91;54.22;95716.63;1044813;28;1071;-77
2021/07/11 00:11:50;;;;;;;;;;;;;;;21.90;54.04;95733.53;1041580;28;2229;-76
2021/07/11 00:12:20;;;;;;;;;;;;;;;21.91;53.85;95721.16;1044825;28;838;-76
2021/07/11 00:12:51;;;;;;;;;;;;;;;21.90;54.50;95730.91;1040742;28;1356;-77
2021/07/11 00:13:21;;;;;;;;;;;;;;;21.90;54.13;95730.13;1045063;28;767;-76
2021/07/11 00:13:52;;;;;;;;;;;;;;;21.90;54.45;95730.91;1048999;28;1233;-76
2021/07/11 00:14:22;;;;;;;;;;;;;;;21.91;54.03;95727.19;1045103;28;1146;-77
2021/07/11 00:14:52;;;;;;;;;;;;;;;21.91;53.99;95723.78;1043206;28;2581;-76
2021/07/11 00:15:23;;;;;;;;;;;;;;;21.90;53.82;95736.19;1040452;28;993;-77
2021/07/11 00:15:53;;;;;;;;;;;;;;;21.91;54.15;95731.69;1041000;28;1022;-76
2021/07/11 00:16:24;;;;;;;;;;;;;;;21.92;53.85;95726.13;1045112;28;1089;-76
2021/07/11 00:16:54;;;;;;;;;;;;;;;21.91;53.78;95715.88;1044773;28;1398;-77
2021/07/11 00:17:24;;;;;;;;;;;;;;;21.93;53.70;95726.94;1045142;28;792;-76
2021/07/11 00:17:55;;;;;;;;;;;;;;;21.91;53.63;95740.38;1047960;28;2919;-76
2021/07/11 00:18:26;;;;;;;;;;;;;;;21.92;53.75;95734.06;1044767;28;838;-76
2021/07/11 00:18:56;;;;;;;;;;;;;;;21.92;53.90;95734.06;1045027;28;1201;-76
2021/07/11 00:19:27;;;;;;;;;;;;;;;21.92;54.14;95736.69;1044423;28;1370;-76
2021/07/11 00:19:57;;;;;;;;;;;;;;;21.92;54.09;95734.06;1039783;28;2460;-76
2021/07/11 00:20:27;;;;;;;;;;;;;;;21.92;54.08;95738.53;1045285;28;698;-76
2021/07/11 00:20:57;;;;;;;;;;;;;;;21.91;54.05;95729.81;1040912;28;1255;-76
2021/07/11 00:21:28;;;;;;;;;;;;;;;21.93;53.65;95729.56;1036681;28;1911;-77
2021/07/11 00:21:58;;;;;;;;;;;;;;;21.92;54.11;95736.69;1035570;28;2274;-76
2021/07/11 00:22:28;;;;;;;;;;;;;;;21.92;53.77;95738.53;1036425;28;1900;-76
2021/07/11 00:22:58;;;;;;;;;;;;;;;21.91;53.92;95740.38;1039707;28;1163;-76
2021/07/11 00:23:29;;;;;;;;;;;;;;;21.91;53.69;95742.25;1039904;28;1027;-76
2021/07/11 00:23:59;;;;;;;;;;;;;;;21.92;54.07;95738.53;1044787;28;1117;-77
2021/07/11 00:24:29;;;;;;;;;;;;;;;21.92;53.66;95741.19;1049202;28;822;-77
2021/07/11 00:25:01;;;;;;;;;;;;;;;21.91;53.94;95735.09;1047857;28;2307;-77
2021/07/11 00:25:31;;;;;;;;;;;;;;;21.92;53.78;95741.97;1049195;28;874;-77
2021/07/11 00:26:01;;;;;;;;;;;;;;;21.90;54.01;95744.09;1047166;28;1343;-77
2021/07/11 00:26:31;;;;;;;;;;;;;;;21.91;53.91;95742.25;1042785;28;1326;-76
2021/07/11 00:27:02;;;;;;;;;;;;;;;21.89;53.96;95739.88;1036453;28;1382;-77
2021/07/11 00:27:32;;;;;;;;;;;;;;;21.90;53.75;95740.66;1032583;28;1247;-77
2021/07/11 00:28:02;;;;;;;;;;;;;;;21.91;53.50;95753.56;1039761;28;1239;-76
2021/07/11 00:28:33;;;;;;;;;;;;;;;21.91;53.67;95750.94;1040771;28;1238;-77
2021/07/11 00:29:03;;;;;;;;;;;;;;;21.92;53.70;95743.81;1040923;28;1155;-77
2021/07/11 00:29:33;;;;;;;;;;;;;;;21.92;53.78;95754.38;1040672;28;1239;-76
2021/07/11 00:30:04;;;;;;;;;;;;;;;21.93;53.92;95758.59;1039526;28;2395;-76
2021/07/11 00:30:34;;;;;;;;;;;;;;;21.92;54.12;95755.16;1041004;28;760;-77
2021/07/11 00:31:04;;;;;;;;;;;;;;;21.91;53.79;95740.38;1044913;28;1456;-77
2021/07/11 00:31:35;;;;;;;;;;;;;;;21.91;53.71;95758.84;1044801;28;1182;-77
2021/07/11 00:32:05;;;;;;;;;;;;;;;21.91;54.06;95756.22;1044360;28;1250;-77
2021/07/11 00:32:35;;;;;;;;;;;;;;;21.91;53.91;95758.84;1044279;28;2028;-77
2021/07/11 00:33:06;;;;;;;;;;;;;;;21.89;54.33;95758.34;1044764;28;1107;-77
2021/07/11 00:33:36;;;;;;;;;;;;;;;21.90;54.08;95764.41;1044982;28;1154;-76
2021/07/11 00:34:06;;;;;;;;;;;;;;;21.90;53.98;95749.38;1040736;28;1352;-77
2021/07/11 00:34:36;;;;;;;;;;;;;;;21.91;53.77;95758.09;1036357;28;1123;-76
2021/07/11 00:35:07;;;;;;;;;;;;;;;21.90;53.73;95762.56;1039213;28;2234;-77
2021/07/11 00:35:37;;;;;;;;;;;;;;;21.91;53.84;95756.22;1036761;28;1362;-77
2021/07/11 00:36:07;;;;;;;;;;;;;;;21.91;53.80;95760.72;1044092;28;2327;-76
2021/07/11 00:36:38;;;;;;;;;;;;;;;21.91;54.07;95764.13;1044897;28;1210;-77
2021/07/11 00:37:08;;;;;;;;;;;;;;;21.90;54.04;95754.66;1040083;28;2622;-77
2021/07/11 00:37:38;;;;;;;;;;;;;;;21.91;54.02;95761.50;1039927;28;1807;-76
2021/07/11 00:38:08;;;;;;;;;;;;;;;21.91;54.17;95764.13;1039419;28;1313;-76
2021/07/11 00:38:39;;;;;;;;;;;;;;;21.91;53.95;95755.44;1040743;28;1154;-77
2021/07/11 00:39:09;;;;;;;;;;;;;;;21.91;53.65;95763.38;1041054;28;1400;-77
2021/07/11 00:39:39;;;;;;;;;;;;;;;21.92;53.98;95770.19;1040805;28;1214;-76
2021/07/11 00:40:10;;;;;;;;;;;;;;;21.92;54.00;95760.44;1039901;28;2708;-77
2021/07/11 00:40:40;;;;;;;;;;;;;;;21.91;54.04;95763.38;1045070;28;1099;-77
2021/07/11 00:41:10;;;;;;;;;;;;;;;21.91;53.85;95769.41;1045155;28;1215;-77
2021/07/11 00:41:41;;;;;;;;;;;;;;;21.90;54.09;95770.50;1048881;28;1909;-77
2021/07/11 00:42:12;;;;;;;;;;;;;;;21.90;54.16;95773.13;1044691;28;1515;-77
2021/07/11 00:42:44;;;;;;;;;;;;;;;21.90;54.32;95767.84;1045226;28;1154;-77
2021/07/11 00:43:14;;;;;;;;;;;;;;;21.91;54.19;95774.69;1044593;28;1406;-77
2021/07/11 00:43:44;;;;;;;;;;;;;;;21.90;54.27;95767.84;1041085;28;1169;-77
2021/07/11 00:44:15;;;;;;;;;;;;;;;21.91;54.10;95766.00;1044482;28;2696;-76
2021/07/11 00:44:45;;;;;;;;;;;;;;;21.90;54.04;95767.84;1044318;28;2196;-78
2021/07/11 00:45:15;;;;;;;;;;;;;;;21.91;54.01;95768.66;1048219;28;2322;-77
2021/07/11 00:45:45;;;;;;;;;;;;;;;21.91;53.92;95766.78;1049947;28;1145;-77
2021/07/11 00:46:16;;;;;;;;;;;;;;;21.92;54.17;95773.63;1048731;28;1919;-77
2021/07/11 00:46:46;;;;;;;;;;;;;;;21.91;54.23;95766.00;1041646;28;1333;-77
2021/07/11 00:47:16;;;;;;;;;;;;;;;21.92;53.85;95764.94;1045252;28;1006;-78
2021/07/11 00:47:47;;;;;;;;;;;;;;;21.91;54.14;95766.00;1045160;28;1091;-78
2021/07/11 00:48:20;;;;;;;;;;;;;;;21.90;54.00;95762.56;1048525;28;1166;-77
2021/07/11 00:48:50;;;;;;;;;;;;;;;21.91;53.86;95763.38;1047936;28;1146;-78
2021/07/11 00:49:21;;;;;;;;;;;;;;;21.90;54.07;95772.34;1051241;28;796;-78
2021/07/11 00:49:51;;;;;;;;;;;;;;;21.90;54.00;95767.84;1049241;28;1343;-77
2021/07/11 00:50:21;;;;;;;;;;;;;;;21.91;53.85;95769.41;1045820;28;2426;-77
2021/07/11 00:50:51;;;;;;;;;;;;;;;21.91;54.17;95764.13;1041900;28;1314;-77
2021/07/11 00:51:22;;;;;;;;;;;;;;;21.90;53.92;95767.84;1041373;28;1463;-78
2021/07/11 00:51:53;;;;;;;;;;;;;;;21.91;53.88;95764.13;1040995;28;1155;-77
2021/07/11 00:52:23;;;;;;;;;;;;;;;21.90;53.95;95762.56;1041560;28;1085;-77
2021/07/11 00:52:53;;;;;;;;;;;;;;;21.90;54.11;95762.56;1045836;28;1118;-78
2021/07/11 00:53:23;;;;;;;;;;;;;;;21.91;53.60;95758.09;1044401;28;1226;-77
2021/07/11 00:53:54;;;;;;;;;;;;;;;21.91;54.07;95763.38;1044154;28;1174;-78
2021/07/11 00:54:24;;;;;;;;;;;;;;;21.90;53.88;95765.22;1041583;28;1974;-77
2021/07/11 00:54:54;;;;;;;;;;;;;;;21.91;53.86;95764.13;1041301;28;1238;-77
2021/07/11 00:55:25;;;;;;;;;;;;;;;21.90;54.04;95767.84;1041991;28;2423;-77
2021/07/11 00:55:55;;;;;;;;;;;;;;;21.90;53.89;95765.22;1043541;28;1092;-76
2021/07/11 00:56:25;;;;;;;;;;;;;;;21.90;53.89;95753.88;1048314;28;1689;-78
2021/07/11 00:56:56;;;;;;;;;;;;;;;21.90;53.80;95767.06;1043521;28;1228;-78
2021/07/11 00:57:26;;;;;;;;;;;;;;;21.91;53.95;95763.38;1037102;28;800;-77
2021/07/11 00:57:56;;;;;;;;;;;;;;;21.91;53.92;95769.41;1039654;28;1124;-77
2021/07/11 00:58:27;;;;;;;;;;;;;;;21.91;54.06;95769.41;1040471;28;1127;-78
2021/07/11 00:58:57;;;;;;;;;;;;;;;21.90;53.84;95765.22;1040755;28;1231;-78
2021/07/11 00:59:28;;;;;;;;;;;;;;;21.89;53.78;95766.28;1040421;28;2645;-77
2021/07/11 00:59:58;;;;;;;;;;;;;;;21.90;53.56;95767.06;1041030;28;2066;-78
2021/07/11 01:00:28;;;;;;;;;;;;;;;21.89;54.08;95768.91;1044226;28;2613;-77
2021/07/11 01:00:58;;;;;;;;;;;;;;;21.90;54.02;95764.41;1042085;28;1091;-77
2021/07/11 01:01:36;;;;;;;;;;;;;;;21.90;54.17;95773.13;1044898;28;1977;-77
2021/07/11 01:02:10;;;;;;;;;;;;;;;21.90;53.80;95762.56;1045842;28;1162;-76
2021/07/11 01:02:52;;;;;;;;;;;;;;;21.91;53.94;95769.41;1040729;28;1324;-78
2021/07/11 01:03:29;;;;;;;;;;;;;;;21.91;54.06;95769.41;1035548;28;1389;-77
2021/07/11 01:04:01;;;;;;;;;;;;;;;21.90;54.03;95765.22;1034053;28;2194;-77
2021/07/11 01:04:38;;;;;;;;;;;;;;;21.90;54.01;95767.84;1039097;28;845;-77
2021/07/11 01:05:09;;;;;;;;;;;;;;;21.91;54.21;95768.66;1041838;28;2455;-76
2021/07/11 01:05:40;;;;;;;;;;;;;;;21.90;54.01;95769.69;1040853;28;1203;-77
2021/07/11 01:06:10;;;;;;;;;;;;;;;21.90;54.01;95767.84;1040882;28;820;-78
2021/07/11 01:06:42;;;;;;;;;;;;;;;21.90;53.85;95778.41;1036789;28;1203;-77
2021/07/11 01:07:12;;;;;;;;;;;;;;;21.89;54.08;95766.28;1040897;28;1214;-77
2021/07/11 01:08:01;;;;;;;;;;;;;;;21.89;54.14;95771.53;1041102;28;1194;-77
2021/07/11 01:08:40;;;;;;;;;;;;;;;21.89;53.79;95771.53;1042378;28;1223;-77
2021/07/11 01:09:11;;;;;;;;;;;;;;;21.89;54.24;95768.91;1040614;28;850;-77
2021/07/11 01:09:42;;;;;;;;;;;;;;;21.88;54.04;95770.75;1040375;28;1249;-77
2021/07/11 01:10:17;;;;;;;;;;;;;;;21.88;54.12;95764.72;1032939;28;2274;-77
2021/07/11 01:10:47;;;;;;;;;;;;;;;21.88;54.16;95764.72;1031994;28;1171;-77
2021/07/11 01:11:18;;;;;;;;;;;;;;;21.90;54.23;95773.13;1033302;28;1518;-77
2021/07/11 01:11:49;;;;;;;;;;;;;;;21.89;54.26;95776.81;1033949;28;1753;-77
2021/07/11 01:12:20;;;;;;;;;;;;;;;21.90;53.75;95773.13;1041071;28;1204;-77
2021/07/11 01:12:52;;;;;;;;;;;;;;;21.90;53.74;95773.13;1042379;28;1389;-77
2021/07/11 01:13:22;;;;;;;;;;;;;;;21.90;53.99;95769.69;1036306;28;1854;-77
2021/07/11 01:13:54;;;;;;;;;;;;;;;21.90;53.85;95772.34;1037017;28;1046;-77
2021/07/11 01:14:24;;;;;;;;;;;;;;;21.90;54.07;95767.06;1040601;28;2644;-76
2021/07/11 01:14:54;;;;;;;;;;;;;;;21.90;54.03;95773.13;1040608;28;2146;-77
2021/07/11 01:15:25;;;;;;;;;;;;;;;21.90;54.03;95767.06;1039993;28;2446;-77
2021/07/11 01:15:55;;;;;;;;;;;;;;;21.89;53.88;95763.63;1044841;28;1087;-77
2021/07/11 01:16:27;;;;;;;;;;;;;;;21.89;53.92;95763.63;1040926;28;1474;-77
2021/07/11 01:16:57;;;;;;;;;;;;;;;21.90;53.99;95770.50;1036742;28;1167;-78
2021/07/11 01:17:28;;;;;;;;;;;;;;;21.89;53.82;95763.63;1036760;28;1042;-77
2021/07/11 01:18:02;;;;;;;;;;;;;;;21.90;54.24;95775.78;1039706;28;1104;-77
2021/07/11 01:18:32;;;;;;;;;;;;;;;21.89;54.03;95766.28;1044581;28;1138;-77
2021/07/11 01:19:06;;;;;;;;;;;;;;;21.88;54.25;95770.75;1041234;28;1191;-77
2021/07/11 01:19:49;;;;;;;;;;;;;;;21.89;53.82;95761.00;1041234;28;1483;-77
2021/07/11 01:20:28;;;;;;;;;;;;;;;21.89;53.95;95761.00;1040976;28;2270;-78
2021/07/11 01:21:01;;;;;;;;;;;;;;;21.89;53.82;95766.28;1046397;28;1776;-77
2021/07/11 01:21:32;;;;;;;;;;;;;;;21.89;53.86;95771.53;1044421;28;1910;-76
2021/07/11 01:22:03;;;;;;;;;;;;;;;21.91;54.07;95768.66;1044423;28;1201;-76
2021/07/11 01:22:39;;;;;;;;;;;;;;;21.90;53.95;95765.22;1036261;28;1394;-77
2021/07/11 01:23:11;;;;;;;;;;;;;;;21.90;54.07;95759.94;1032912;28;1151;-77
2021/07/11 01:23:43;;;;;;;;;;;;;;;21.88;54.12;95765.47;1033356;28;1247;-77
2021/07/11 01:24:19;;;;;;;;;;;;;;;21.88;54.16;95764.72;1034915;28;1388;-76
2021/07/11 01:24:50;;;;;;;;;;;;;;;21.88;53.76;95768.13;1041559;28;1591;-76
2021/07/11 01:25:38;;;;;;;;;;;;;;;21.87;53.95;95768.41;1040275;28;2378;-77
2021/07/11 01:26:09;;;;;;;;;;;;;;;21.87;54.10;95768.41;1050132;28;1348;-77
2021/07/11 01:26:40;;;;;;;;;;;;;;;21.88;53.70;95770.00;1049766;28;1209;-77
2021/07/11 01:27:10;;;;;;;;;;;;;;;21.89;54.13;95771.53;1040543;28;1606;-77
2021/07/11 01:27:41;;;;;;;;;;;;;;;21.89;54.09;95776.81;1036546;28;1132;-77
2021/07/11 01:28:12;;;;;;;;;;;;;;;21.88;54.14;95760.19;1036071;28;970;-76
2021/07/11 01:28:43;;;;;;;;;;;;;;;21.90;53.97;95772.34;1037162;28;1163;-77
2021/07/11 01:29:13;;;;;;;;;;;;;;;21.89;53.71;95771.53;1044451;28;1815;-77
2021/07/11 01:29:43;;;;;;;;;;;;;;;21.88;54.12;95770.00;1044710;28;1225;-77
2021/07/11 01:30:14;;;;;;;;;;;;;;;21.88;54.02;95763.91;1043801;28;2300;-77
2021/07/11 01:30:44;;;;;;;;;;;;;;;21.88;53.91;95771.84;1037722;28;1192;-77
2021/07/11 01:31:15;;;;;;;;;;;;;;;21.88;54.03;95764.72;1036555;28;1570;-77
2021/07/11 01:31:45;;;;;;;;;;;;;;;21.90;54.07;95773.13;1036380;28;1377;-77
2021/07/11 01:32:15;;;;;;;;;;;;;;;21.88;53.74;95768.13;1036154;28;1372;-77
2021/07/11 01:32:46;;;;;;;;;;;;;;;21.88;54.14;95773.38;1036682;28;1199;-77
2021/07/11 01:33:16;;;;;;;;;;;;;;;21.88;53.90;95770.00;1040545;28;692;-77
2021/07/11 01:33:47;;;;;;;;;;;;;;;21.88;54.16;95767.34;1040636;28;1262;-77
2021/07/11 01:34:17;;;;;;;;;;;;;;;21.88;53.80;95764.72;1036398;28;1348;-77
2021/07/11 01:34:48;;;;;;;;;;;;;;;21.88;53.74;95762.06;1036051;28;1260;-77
2021/07/11 01:35:18;;;;;;;;;;;;;;;21.88;54.15;95770.00;1027477;28;2284;-76
2021/07/11 01:35:48;;;;;;;;;;;;;;;21.88;53.89;95765.47;1029984;28;1183;-78
2021/07/11 01:36:20;;;;;;;;;;;;;;;21.89;53.95;95766.28;1032286;28;1221;-77
2021/07/11 01:36:50;;;;;;;;;;;;;;;21.88;54.18;95765.47;1040402;28;1364;-77
2021/07/11 01:37:21;;;;;;;;;;;;;;;21.88;53.72;95765.47;1040826;28;1238;-77
2021/07/11 01:37:51;;;;;;;;;;;;;;;21.89;54.01;95766.28;1040873;28;1136;-76
2021/07/11 01:38:22;;;;;;;;;;;;;;;21.89;54.13;95766.28;1039415;28;1115;-77
2021/07/11 01:38:52;;;;;;;;;;;;;;;21.89;53.74;95771.53;1040013;28;2200;-77
2021/07/11 01:39:22;;;;;;;;;;;;;;;21.88;53.78;95767.34;1040470;28;1423;-77
2021/07/11 01:39:52;;;;;;;;;;;;;;;21.88;53.86;95770.00;1040418;28;1271;-77
2021/07/11 01:40:23;;;;;;;;;;;;;;;21.88;54.00;95770.00;1033015;28;2611;-76
2021/07/11 01:40:53;;;;;;;;;;;;;;;21.88;53.83;95771.84;1038511;28;1120;-77
2021/07/11 01:41:25;;;;;;;;;;;;;;;21.88;53.97;95770.00;1032484;28;1977;-77
2021/07/11 01:41:56;;;;;;;;;;;;;;;21.90;53.95;95773.13;1028506;28;1426;-77
2021/07/11 01:42:26;;;;;;;;;;;;;;;21.90;53.75;95770.50;1032451;28;1204;-77
2021/07/11 01:42:56;;;;;;;;;;;;;;;21.89;53.89;95768.91;1035644;28;1144;-76
2021/07/11 01:43:27;;;;;;;;;;;;;;;21.88;53.70;95770.75;1040681;28;1131;-77
2021/07/11 01:43:57;;;;;;;;;;;;;;;21.89;53.71;95771.53;1036327;28;1167;-76
2021/07/11 01:44:28;;;;;;;;;;;;;;;21.89;53.81;95771.53;1036416;28;1287;-77
2021/07/11 01:44:58;;;;;;;;;;;;;;;21.88;53.63;95767.34;1037269;28;2409;-77
2021/07/11 01:45:30;;;;;;;;;;;;;;;21.88;53.95;95770.75;1033937;28;2223;-77
2021/07/11 01:46:00;;;;;;;;;;;;;;;21.90;53.72;95761.78;1039995;28;1902;-77
2021/07/11 01:46:31;;;;;;;;;;;;;;;21.89;53.83;95771.53;1036579;28;1238;-76
2021/07/11 01:47:01;;;;;;;;;;;;;;;21.89;53.79;95766.28;1035741;28;1993;-77
2021/07/11 01:47:32;;;;;;;;;;;;;;;21.88;53.64;95770.75;1040699;28;1045;-77
2021/07/11 01:48:02;;;;;;;;;;;;;;;21.89;53.37;95768.91;1041112;28;1241;-76
2021/07/11 01:48:33;;;;;;;;;;;;;;;21.90;53.65;95767.84;1040383;28;1184;-77
2021/07/11 01:49:03;;;;;;;;;;;;;;;21.89;54.02;95768.91;1035843;28;1207;-77
2021/07/11 01:49:33;;;;;;;;;;;;;;;21.91;54.01;95769.41;1032175;28;1269;-77
2021/07/11 01:50:04;;;;;;;;;;;;;;;21.91;53.59;95769.41;1032083;28;1159;-77
2021/07/11 01:50:34;;;;;;;;;;;;;;;21.89;53.87;95768.91;1039687;28;2626;-76
2021/07/11 01:51:05;;;;;;;;;;;;;;;21.91;53.80;95768.66;1040881;28;1106;-76
2021/07/11 01:51:35;;;;;;;;;;;;;;;21.90;53.78;95762.56;1044542;28;1535;-76
2021/07/11 01:52:05;;;;;;;;;;;;;;;21.89;53.83;95761.00;1044432;28;1138;-77
2021/07/11 01:52:36;;;;;;;;;;;;;;;21.90;53.58;95761.78;1044724;28;815;-77
2021/07/11 01:53:06;;;;;;;;;;;;;;;21.89;53.79;95766.28;1043638;28;1120;-76
2021/07/11 01:53:38;;;;;;;;;;;;;;;21.89;53.90;95761.00;1039567;28;1884;-77
2021/07/11 01:54:08;;;;;;;;;;;;;;;21.90;53.85;95762.56;1044834;28;1037;-76
2021/07/11 01:54:38;;;;;;;;;;;;;;;21.88;54.01;95759.44;1044749;28;1099;-77
2021/07/11 01:55:09;;;;;;;;;;;;;;;21.88;53.83;95754.16;1040509;28;982;-77
2021/07/11 01:55:40;;;;;;;;;;;;;;;21.90;53.48;95759.16;1035235;28;2314;-77
2021/07/11 01:56:10;;;;;;;;;;;;;;;21.88;53.66;95758.63;1036373;28;1572;-77
2021/07/11 01:56:41;;;;;;;;;;;;;;;21.88;53.77;95758.63;1040672;28;1166;-77
2021/07/11 01:57:13;;;;;;;;;;;;;;;21.88;54.09;95760.19;1043111;28;1186;-76
2021/07/11 01:57:43;;;;;;;;;;;;;;;21.88;53.89;95754.16;1037849;28;1188;-77
2021/07/11 01:58:14;;;;;;;;;;;;;;;21.88;53.74;95757.56;1048467;28;879;-77
2021/07/11 01:58:44;;;;;;;;;;;;;;;21.87;53.68;95760.47;1044487;28;1154;-77
2021/07/11 01:59:14;;;;;;;;;;;;;;;21.88;53.75;95754.16;1040359;28;1386;-77
2021/07/11 01:59:45;;;;;;;;;;;;;;;21.89;53.71;95763.63;1040324;28;1415;-77
2021/07/11 02:00:15;;;;;;;;;;;;;;;21.90;53.82;95761.78;1036492;28;1273;-76
2021/07/11 02:00:46;;;;;;;;;;;;;;;21.88;53.51;95762.84;1043221;28;2268;-77
2021/07/11 02:01:18;;;;;;;;;;;;;;;21.90;53.83;95759.16;1048763;28;839;-77
2021/07/11 02:01:48;;;;;;;;;;;;;;;21.90;53.74;95761.78;1043750;28;1906;-77
2021/07/11 02:02:18;;;;;;;;;;;;;;;21.90;53.55;95762.56;1042569;28;1166;-77
2021/07/11 02:02:49;;;;;;;;;;;;;;;21.89;53.73;95768.91;1042049;28;1193;-76
2021/07/11 02:03:20;;;;;;;;;;;;;;;21.89;53.53;95761.00;1039349;28;1607;-77
2021/07/11 02:03:50;;;;;;;;;;;;;;;21.90;53.73;95759.16;1038202;28;2201;-77
2021/07/11 02:04:21;;;;;;;;;;;;;;;21.90;53.88;95765.22;1043452;28;2298;-77
2021/07/11 02:04:51;;;;;;;;;;;;;;;21.91;53.71;95763.38;1044727;28;1363;-77
2021/07/11 02:05:21;;;;;;;;;;;;;;;21.90;53.85;95764.41;1047778;28;2342;-77
2021/07/11 02:05:52;;;;;;;;;;;;;;;21.91;53.89;95766.00;1048449;28;2173;-77
2021/07/11 02:06:23;;;;;;;;;;;;;;;21.89;53.79;95768.91;1049166;28;835;-77
2021/07/11 02:06:53;;;;;;;;;;;;;;;21.89;53.87;95766.28;1048655;28;1226;-77
2021/07/11 02:07:23;;;;;;;;;;;;;;;21.88;53.78;95765.47;1044700;28;1259;-76
2021/07/11 02:07:53;;;;;;;;;;;;;;;21.91;53.66;95766.00;1044669;28;1210;-77
2021/07/11 02:08:24;;;;;;;;;;;;;;;21.90;53.70;95762.56;1039328;28;1419;-76
2021/07/11 02:08:54;;;;;;;;;;;;;;;21.89;53.95;95766.28;1040361;28;1203;-77
2021/07/11 02:09:24;;;;;;;;;;;;;;;21.91;53.79;95772.06;1040424;28;1221;-77
2021/07/11 02:09:55;;;;;;;;;;;;;;;21.89;53.72;95771.53;1036489;28;1152;-76
2021/07/11 02:10:25;;;;;;;;;;;;;;;21.88;53.88;95770.00;1039600;28;2280;-76
2021/07/11 02:10:55;;;;;;;;;;;;;;;21.88;53.82;95768.13;1038395;28;2416;-76
2021/07/11 02:11:26;;;;;;;;;;;;;;;21.88;53.71;95775.28;1040627;28;717;-77
2021/07/11 02:11:57;;;;;;;;;;;;;;;21.88;53.67;95770.75;1036180;28;1223;-77
2021/07/11 02:12:28;;;;;;;;;;;;;;;21.89;53.77;95768.91;1033664;28;1103;-77
2021/07/11 02:13:02;;;;;;;;;;;;;;;21.88;53.76;95772.63;1035466;28;1196;-77
2021/07/11 02:13:36;;;;;;;;;;;;;;;21.88;53.56;95764.72;1037262;28;1280;-77
2021/07/11 02:14:07;;;;;;;;;;;;;;;21.90;53.57;95767.06;1040265;28;1456;-76
2021/07/11 02:14:38;;;;;;;;;;;;;;;21.90;53.65;95778.41;1039615;28;2609;-76
2021/07/11 02:15:08;;;;;;;;;;;;;;;21.88;53.66;95765.47;1036283;28;2532;-77
2021/07/11 02:15:41;;;;;;;;;;;;;;;21.90;53.59;95775.78;1031824;28;2330;-76
2021/07/11 02:16:14;;;;;;;;;;;;;;;21.89;53.36;95771.53;1032792;28;1132;-77
2021/07/11 02:17:09;;;;;;;;;;;;;;;21.89;53.57;95766.28;1033034;28;1350;-76
2021/07/11 02:17:42;;;;;;;;;;;;;;;21.90;53.63;95770.50;1037782;28;2654;-76
2021/07/11 02:18:13;;;;;;;;;;;;;;;21.90;53.35;95770.50;1039897;28;1159;-77
2021/07/11 02:18:43;;;;;;;;;;;;;;;21.90;53.70;95772.34;1040182;28;1116;-76
2021/07/11 02:19:15;;;;;;;;;;;;;;;21.89;53.68;95779.47;1036542;28;1718;-76
2021/07/11 02:19:45;;;;;;;;;;;;;;;21.91;53.82;95773.94;1035927;28;1574;-77
2021/07/11 02:20:15;;;;;;;;;;;;;;;21.90;53.51;95773.13;1036820;28;798;-76
2021/07/11 02:20:46;;;;;;;;;;;;;;;21.91;53.51;95773.94;1038367;28;2681;-77
2021/07/11 02:21:18;;;;;;;;;;;;;;;21.91;53.40;95779.19;1036384;28;1121;-77
2021/07/11 02:21:48;;;;;;;;;;;;;;;21.91;53.76;95774.69;1040162;28;1977;-76
2021/07/11 02:22:18;;;;;;;;;;;;;;;21.91;53.45;95777.31;1040647;28;1186;-77
2021/07/11 02:22:49;;;;;;;;;;;;;;;21.90;53.86;95782.91;1039807;28;1775;-77
2021/07/11 02:23:23;;;;;;;;;;;;;;;21.90;53.66;95777.63;1039687;28;1200;-77
2021/07/11 02:23:53;;;;;;;;;;;;;;;21.91;53.49;95779.19;1040680;28;1467;-76
2021/07/11 02:24:23;;;;;;;;;;;;;;;21.90;53.80;95783.69;1035987;28;1240;-77
2021/07/11 02:24:54;;;;;;;;;;;;;;;21.90;53.69;95775.78;1039040;28;1195;-77
2021/07/11 02:25:24;;;;;;;;;;;;;;;21.90;53.23;95783.69;1040634;28;1175;-76
2021/07/11 02:25:55;;;;;;;;;;;;;;;21.90;53.58;95786.31;1028315;28;2700;-75
2021/07/11 02:26:25;;;;;;;;;;;;;;;21.92;53.49;95788.69;1032312;28;1153;-76
2021/07/11 02:26:55;;;;;;;;;;;;;;;21.91;53.65;95777.31;1035389;28;1368;-77
2021/07/11 02:27:25;;;;;;;;;;;;;;;21.91;53.73;95784.47;1038297;28;1671;-77
2021/07/11 02:27:56;;;;;;;;;;;;;;;21.90;53.58;95783.69;1039743;28;1056;-77
2021/07/11 02:28:29;;;;;;;;;;;;;;;21.90;53.59;95778.41;1035891;28;950;-76
2021/07/11 02:29:00;;;;;;;;;;;;;;;21.90;53.74;95778.41;1028633;28;1233;-77
2021/07/11 02:29:35;;;;;;;;;;;;;;;21.89;53.57;95782.09;1033810;28;1652;-77
2021/07/11 02:30:11;;;;;;;;;;;;;;;21.89;53.51;95771.53;1037530;28;1214;-77
2021/07/11 02:30:51;;;;;;;;;;;;;;;21.88;53.72;95776.03;1035976;28;2342;-76
2021/07/11 02:31:21;;;;;;;;;;;;;;;21.89;53.66;95776.81;1035466;28;2374;-77
2021/07/11 02:31:52;;;;;;;;;;;;;;;21.88;53.60;95769.19;1037056;28;1096;-76
2021/07/11 02:32:22;;;;;;;;;;;;;;;21.87;53.48;95773.69;1037828;28;816;-76
2021/07/11 02:32:53;;;;;;;;;;;;;;;21.88;53.81;95780.53;1036180;28;1293;-77
2021/07/11 02:33:31;;;;;;;;;;;;;;;21.88;53.65;95774.47;1032433;28;871;-76
2021/07/11 02:34:03;;;;;;;;;;;;;;;21.87;53.74;95776.31;1040870;28;1104;-76
2021/07/11 02:34:33;;;;;;;;;;;;;;;21.87;53.58;95784.22;1041103;28;1154;-77
2021/07/11 02:35:04;;;;;;;;;;;;;;;21.88;53.57;95774.47;1045798;28;1179;-76
2021/07/11 02:35:37;;;;;;;;;;;;;;;21.88;53.60;95783.19;1043487;28;2279;-76
2021/07/11 02:36:10;;;;;;;;;;;;;;;21.88;53.58;95774.47;1044832;28;1222;-77
2021/07/11 02:36:42;;;;;;;;;;;;;;;21.88;53.54;95775.28;1048604;28;1194;-77
2021/07/11 02:37:14;;;;;;;;;;;;;;;21.88;53.76;95785.03;1045447;28;1225;-77
2021/07/11 02:37:47;;;;;;;;;;;;;;;21.87;53.39;95784.22;1041348;28;1116;-76
2021/07/11 02:38:17;;;;;;;;;;;;;;;21.88;53.57;95785.81;1043560;28;704;-77
2021/07/11 02:38:49;;;;;;;;;;;;;;;21.88;53.81;95791.88;1036644;28;1252;-76
2021/07/11 02:39:19;;;;;;;;;;;;;;;21.88;53.67;95785.81;1041131;28;1139;-77
2021/07/11 02:39:50;;;;;;;;;;;;;;;21.88;53.63;95783.19;1044441;28;1328;-77
2021/07/11 02:40:21;;;;;;;;;;;;;;;21.88;53.47;95780.53;1041196;28;768;-77
2021/07/11 02:40:51;;;;;;;;;;;;;;;21.89;53.64;95787.38;1038613;28;2265;-77
2021/07/11 02:41:21;;;;;;;;;;;;;;;21.88;53.04;95785.03;1036424;28;1394;-76
2021/07/11 02:41:55;;;;;;;;;;;;;;;21.88;53.43;95789.22;1036366;28;1995;-76
2021/07/11 02:42:25;;;;;;;;;;;;;;;21.89;53.68;95782.09;1036766;28;1174;-77
2021/07/11 02:42:58;;;;;;;;;;;;;;;21.90;53.63;95786.31;1040687;28;1301;-77
2021/07/11 02:43:29;;;;;;;;;;;;;;;21.89;53.56;95790.03;1044326;28;1375;-77
2021/07/11 02:43:59;;;;;;;;;;;;;;;21.88;53.83;95781.31;1043896;28;1610;-77
2021/07/11 02:44:29;;;;;;;;;;;;;;;21.90;53.60;95788.97;1042117;28;2641;-76